createdAt,value
2017-05-25T00:00:02.377Z,77.27
2017-05-25T00:10:02.088Z,78.98
2017-05-25T00:20:02.786Z,79.64
2017-05-25T00:30:02.253Z,81.05
2017-05-25T00:40:02.736Z,82.28
2017-05-25T00:50:02.200Z,83.34
2017-05-25T01:00:02.707Z,84.89
2017-05-25T01:10:02.874Z,85.39
2017-05-25T01:20:02.136Z,86.82
2017-05-25T01:30:02.583Z,87.07
2017-05-25T01:40:02.994Z,88.49
2017-05-25T01:50:02.125Z,89.14
2017-05-25T02:00:02.633Z,89.23
2017-05-25T02:10:02.305Z,89.83
2017-05-25T02:20:02.705Z,90.72
2017-05-25T02:30:02.223Z,91.13
2017-05-25T02:40:02.728Z,91.32
2017-05-25T02:50:02.874Z,91.71
2017-05-25T03:00:02.313Z,92.77
2017-05-25T03:10:02.849Z,94.3
2017-05-25T03:20:03.048Z,94.82
2017-05-25T03:30:02.542Z,95.06
2017-05-25T03:40:02.818Z,95.26
2017-05-25T03:50:02.748Z,95.18
2017-05-25T04:00:02.286Z,95.19
2017-05-25T04:10:02.410Z,95.02
2017-05-25T04:20:02.880Z,94.54
2017-05-25T04:30:02.986Z,94.7
2017-05-25T04:40:02.123Z,94.32
2017-05-25T04:50:02.090Z,94.83
2017-05-25T05:00:02.634Z,95.27
2017-05-25T05:10:02.708Z,95.22
2017-05-25T05:20:02.654Z,95.77
2017-05-25T05:30:02.756Z,95.54
2017-05-25T05:40:02.881Z,94.32
2017-05-25T05:50:02.346Z,93.79
2017-05-25T06:00:02.427Z,92.98
2017-05-25T06:10:02.521Z,91.84
2017-05-25T06:20:02.918Z,91.52
2017-05-25T06:30:02.992Z,90.78
2017-05-25T06:40:02.103Z,89.46
2017-05-25T06:50:02.600Z,87.81
2017-05-25T07:00:02.712Z,86.78
2017-05-25T07:10:02.832Z,87.35
2017-05-25T07:20:02.273Z,87.96
2017-05-25T07:30:02.392Z,87.2
2017-05-25T07:40:02.482Z,86.34
2017-05-25T07:50:02.294Z,85.99
2017-05-25T08:00:02.393Z,86.82
2017-05-25T08:10:02.504Z,87.04
2017-05-25T08:20:02.825Z,85.94
2017-05-25T08:30:02.922Z,85.43
2017-05-25T08:40:03.034Z,84.1
2017-05-25T08:50:02.120Z,83.34
2017-05-25T09:00:02.235Z,81.73
2017-05-25T09:10:02.316Z,82.12
2017-05-25T09:20:02.943Z,80.73
2017-05-25T09:30:03.042Z,79.9
2017-05-25T09:40:02.136Z,79.57
2017-05-25T09:50:02.239Z,77.54
2017-05-25T10:00:02.312Z,78.18
2017-05-25T10:10:02.424Z,74.71
2017-05-25T10:20:02.053Z,74.58
2017-05-25T10:30:02.144Z,72.87
2017-05-25T10:40:02.228Z,72.15
2017-05-25T10:50:02.792Z,70.15
2017-05-25T11:00:02.889Z,69.19
2017-05-25T11:10:03.016Z,66.08
2017-05-25T11:20:02.188Z,65.16
2017-05-25T11:30:02.285Z,63.47
2017-05-25T11:40:02.395Z,62.96
2017-05-25T11:50:02.556Z,62.48
2017-05-25T12:00:03.028Z,61.76
2017-05-25T12:10:03.087Z,63.59
2017-05-25T12:20:02.996Z,61.79
2017-05-25T12:30:02.510Z,60.29
2017-05-25T12:40:02.708Z,61.12
2017-05-25T12:50:02.358Z,62.36
2017-05-25T13:00:02.800Z,62.48
2017-05-25T13:10:02.886Z,62.51
2017-05-25T13:20:02.964Z,62.03
2017-05-25T13:30:02.430Z,61.97
2017-05-25T13:40:02.340Z,60.35
2017-05-25T13:50:02.163Z,60.91
2017-05-25T14:00:02.625Z,61.42
2017-05-25T14:10:02.067Z,61.28
2017-05-25T14:20:02.982Z,60.62
2017-05-25T14:30:02.466Z,60.85
2017-05-25T14:40:02.108Z,60.56
2017-05-25T14:50:02.158Z,59.95
2017-05-25T15:00:02.615Z,60.16
2017-05-25T15:10:02.122Z,58.62
2017-05-25T15:20:02.210Z,59.62
2017-05-25T15:30:02.660Z,59.48
2017-05-25T15:40:02.115Z,59.91
2017-05-25T15:50:02.220Z,59.9
2017-05-25T16:00:02.704Z,60.23
2017-05-25T16:10:02.746Z,60.3
2017-05-25T16:20:02.166Z,60.44
2017-05-25T16:30:02.638Z,59.5
2017-05-25T16:40:02.211Z,60.29
2017-05-25T16:50:02.724Z,60.41
2017-05-25T17:00:02.167Z,60.91
2017-05-25T17:10:02.698Z,61.76
2017-05-25T17:20:02.965Z,61.8
2017-05-25T17:30:02.418Z,62.35
2017-05-25T17:40:02.871Z,63.56
2017-05-25T17:50:02.459Z,64.16
2017-05-25T18:00:02.954Z,64.71
2017-05-25T18:10:02.077Z,65.92
2017-05-25T18:20:02.365Z,66.47
2017-05-25T18:30:02.862Z,68.09
2017-05-25T18:40:02.630Z,69.31
2017-05-25T18:50:02.439Z,70.81
2017-05-25T19:00:02.893Z,71.7
2017-05-25T19:10:02.630Z,72.6
2017-05-25T19:20:02.630Z,72.53
2017-05-25T19:30:02.121Z,74.49
2017-05-25T19:40:02.801Z,75.86
2017-05-25T19:50:02.384Z,77.18
2017-05-25T20:00:02.847Z,78.26
2017-05-25T20:10:02.530Z,77.99
2017-05-25T20:20:02.319Z,79.61
2017-05-25T20:30:02.795Z,80.28
2017-05-25T20:40:02.281Z,81.54
2017-05-25T20:50:02.506Z,82.34
2017-05-25T21:00:02.970Z,83.06
2017-05-25T21:10:02.321Z,84.84
2017-05-25T21:20:02.941Z,84.93
2017-05-25T21:30:02.384Z,86.8
2017-05-25T21:40:02.676Z,88.32
2017-05-25T21:50:02.104Z,88.55
2017-05-25T22:00:02.637Z,88.8
2017-05-25T22:10:02.358Z,90.26
2017-05-25T22:20:02.653Z,91.26
2017-05-25T22:30:02.141Z,90.94
2017-05-25T22:40:02.623Z,92.85
2017-05-25T22:50:02.611Z,91.74
2017-05-25T23:00:02.141Z,93.06
2017-05-25T23:10:02.185Z,92.51
2017-05-25T23:20:02.757Z,94.09
2017-05-25T23:30:02.248Z,93.97
2017-05-25T23:40:02.122Z,93.13
2017-05-25T23:50:02.343Z,94.93
